createdAt,value
2016-05-05T00:00:56.054Z,1
2016-05-05T00:04:08.581Z,1
2016-05-05T00:07:21.136Z,1
2016-05-05T00:10:33.691Z,1
2016-05-05T00:13:52.339Z,1
2016-05-05T00:17:00.068Z,1
2016-05-05T00:20:01.718Z,1
2016-05-05T00:23:14.351Z,1
2016-05-05T00:26:27.046Z,1
2016-05-05T00:29:39.695Z,1
2016-05-05T00:32:58.283Z,1
2016-05-05T00:35:59.980Z,1
2016-05-05T00:39:12.722Z,1
2016-05-05T00:42:24.605Z,1
2016-05-05T00:45:39.254Z,1
2016-05-05T00:48:55.512Z,1
2016-05-05T00:51:57.239Z,0
2016-05-05T00:55:09.874Z,0
2016-05-05T00:58:22.446Z,0
2016-05-05T01:01:35.265Z,0
2016-05-05T01:04:54.055Z,0
2016-05-05T01:08:01.816Z,0
2016-05-05T01:11:03.433Z,0
2016-05-05T01:14:15.832Z,0
2016-05-05T01:17:28.418Z,0
2016-05-05T01:20:41.207Z,0
2016-05-05T01:24:00.405Z,0
2016-05-05T01:27:01.632Z,0
2016-05-05T01:30:14.390Z,0
2016-05-05T01:33:27.133Z,0
2016-05-05T01:36:37.298Z,0
2016-05-05T01:39:55.789Z,0
2016-05-05T01:42:57.658Z,0
2016-05-05T01:46:10.324Z,0
2016-05-05T01:49:21.222Z,0
2016-05-05T01:52:34.033Z,0
2016-05-05T01:55:52.872Z,0
2016-05-05T01:59:00.842Z,0
2016-05-05T02:02:02.488Z,0
2016-05-05T02:05:15.030Z,0
2016-05-05T02:08:27.720Z,0
2016-05-05T02:11:40.530Z,0
2016-05-05T02:14:56.791Z,0
2016-05-05T02:17:58.584Z,0
2016-05-05T02:21:11.002Z,0
2016-05-05T02:24:23.387Z,0
2016-05-05T02:27:36.051Z,0
2016-05-05T02:30:54.951Z,1
2016-05-05T02:33:56.817Z,1
2016-05-05T02:37:09.672Z,1
2016-05-05T02:40:22.353Z,1
2016-05-05T02:43:35.078Z,0
2016-05-05T02:46:53.899Z,1
2016-05-05T02:50:01.907Z,1
2016-05-05T02:53:03.853Z,2
2016-05-05T02:56:13.958Z,2
2016-05-05T02:59:26.622Z,2
2016-05-05T03:02:39.537Z,4
2016-05-05T03:05:58.154Z,6
2016-05-05T03:09:00.053Z,7
2016-05-05T03:12:12.875Z,11
2016-05-05T03:15:25.524Z,17
2016-05-05T03:18:38.205Z,25
2016-05-05T03:21:56.993Z,38
2016-05-05T03:24:59.174Z,53
2016-05-05T03:28:09.246Z,77
2016-05-05T03:31:22.161Z,111
2016-05-05T03:34:34.888Z,158
2016-05-05T03:37:53.959Z,205
2016-05-05T03:41:01.467Z,245
2016-05-05T03:44:03.319Z,296
2016-05-05T03:47:16.158Z,376
2016-05-05T03:50:28.868Z,480
2016-05-05T03:53:41.157Z,583
2016-05-05T03:56:59.713Z,669
2016-05-05T04:00:01.721Z,736
2016-05-05T04:03:14.372Z,847
2016-05-05T04:06:26.818Z,975
2016-05-05T04:09:39.498Z,1104
2016-05-05T04:12:58.350Z,1238
2016-05-05T04:16:00.326Z,1363
2016-05-05T04:19:11.509Z,1468
2016-05-05T04:22:24.205Z,1551
2016-05-05T04:25:36.572Z,1643
2016-05-05T04:28:55.236Z,1740
2016-05-05T04:31:57.135Z,1842
2016-05-05T04:35:09.786Z,1935
2016-05-05T04:38:20.060Z,2025
2016-05-05T04:41:32.896Z,2120
2016-05-05T04:44:46.951Z,2214
2016-05-05T04:47:58.694Z,2315
2016-05-05T04:51:09.439Z,2419
2016-05-05T04:54:22.322Z,2516
2016-05-05T04:57:35.018Z,2627
2016-05-05T05:00:53.760Z,2746
2016-05-05T05:04:01.721Z,2860
2016-05-05T05:07:03.621Z,3014
2016-05-05T05:10:16.271Z,3243
2016-05-05T05:13:29.061Z,3600
2016-05-05T05:16:41.662Z,3944
2016-05-05T05:20:00.514Z,3730
2016-05-05T05:23:02.741Z,3224
2016-05-05T05:26:14.314Z,3386
2016-05-05T05:29:28.025Z,3574
2016-05-05T05:32:41.737Z,1726
2016-05-05T05:36:01.323Z,1296
2016-05-05T05:39:04.034Z,5273
2016-05-05T05:42:17.685Z,384
2016-05-05T05:45:28.850Z,384
2016-05-05T05:48:42.608Z,384
2016-05-05T05:52:02.116Z,384
2016-05-05T05:55:05.155Z,384
2016-05-05T05:58:19.244Z,8216
2016-05-05T06:01:33.205Z,6977
2016-05-05T06:04:46.901Z,7176
2016-05-05T06:08:00.940Z,7720
2016-05-05T06:11:15.029Z,384
2016-05-05T06:14:28.693Z,384
2016-05-05T06:17:42.998Z,384
2016-05-05T06:20:57.069Z,384
2016-05-05T06:24:11.352Z,384
2016-05-05T06:27:25.785Z,384
2016-05-05T06:30:40.105Z,384
2016-05-05T06:34:00.520Z,384
2016-05-05T06:37:04.262Z,384
2016-05-05T06:40:18.992Z,384
2016-05-05T06:43:33.890Z,384
2016-05-05T06:46:55.148Z,384
2016-05-05T06:49:59.438Z,384
2016-05-05T06:53:14.308Z,384
2016-05-05T06:56:29.129Z,384
2016-05-05T06:59:44.074Z,384
2016-05-05T07:02:59.238Z,3768
2016-05-05T07:06:14.421Z,384
2016-05-05T07:09:29.164Z,384
2016-05-05T07:12:44.406Z,387
2016-05-05T07:15:59.539Z,6481
2016-05-05T07:19:14.612Z,6116
2016-05-05T07:22:29.495Z,5911
2016-05-05T07:25:44.269Z,5544
2016-05-05T07:28:59.402Z,384
2016-05-05T07:32:14.519Z,384
2016-05-05T07:35:29.780Z,565
2016-05-05T07:38:45.007Z,384
2016-05-05T07:41:59.718Z,384
2016-05-05T07:45:14.964Z,384
2016-05-05T07:48:30.128Z,384
2016-05-05T07:51:45.292Z,384
2016-05-05T07:55:00.222Z,384
2016-05-05T07:58:15.608Z,384
2016-05-05T08:01:31.085Z,384
2016-05-05T08:04:45.937Z,384
2016-05-05T08:08:01.273Z,384
2016-05-05T08:11:16.627Z,384
2016-05-05T08:14:32.245Z,384
2016-05-05T08:17:53.767Z,384
2016-05-05T08:20:58.448Z,384
2016-05-05T08:24:13.972Z,384
2016-05-05T08:27:29.499Z,384
2016-05-05T08:30:45.319Z,384
2016-05-05T08:34:00.749Z,384
2016-05-05T08:37:16.304Z,384
2016-05-05T08:40:31.767Z,384
2016-05-05T08:43:53.510Z,384
2016-05-05T08:46:58.487Z,384
2016-05-05T08:50:12.089Z,384
2016-05-05T08:53:27.756Z,384
2016-05-05T08:56:43.717Z,384
2016-05-05T08:59:59.443Z,384
2016-05-05T09:03:15.170Z,384
2016-05-05T09:06:30.931Z,384
2016-05-05T09:09:46.362Z,384
2016-05-05T09:13:01.713Z,384
2016-05-05T09:16:17.471Z,384
2016-05-05T09:19:33.076Z,384
2016-05-05T09:22:54.772Z,384
2016-05-05T09:25:59.669Z,384
2016-05-05T09:29:14.881Z,522
2016-05-05T09:32:30.557Z,384
2016-05-05T09:35:44.924Z,384
2016-05-05T09:38:59.681Z,384
2016-05-05T09:42:14.835Z,384
2016-05-05T09:45:29.819Z,384
2016-05-05T09:48:44.359Z,9076
2016-05-05T09:51:58.711Z,7972
2016-05-05T09:55:12.781Z,7322
2016-05-05T09:58:26.652Z,6993
2016-05-05T10:01:41.238Z,6810
2016-05-05T10:05:02.104Z,6683
2016-05-05T10:08:06.394Z,6597
2016-05-05T10:11:21.342Z,6513
2016-05-05T10:14:36.147Z,6423
2016-05-05T10:17:56.827Z,6298
2016-05-05T10:21:01.100Z,6166
2016-05-05T10:24:16.547Z,6066
2016-05-05T10:27:30.073Z,6012
2016-05-05T10:30:44.659Z,5918
2016-05-05T10:33:58.949Z,5821
2016-05-05T10:37:13.426Z,5719
2016-05-05T10:40:28.029Z,5679
2016-05-05T10:43:42.726Z,5602
2016-05-05T10:47:03.484Z,5599
2016-05-05T10:50:07.398Z,5565
2016-05-05T10:53:21.953Z,5487
2016-05-05T10:56:36.855Z,5388
2016-05-05T10:59:57.313Z,5285
2016-05-05T11:03:01.452Z,5175
2016-05-05T11:06:16.186Z,5090
2016-05-05T11:09:31.165Z,5045
2016-05-05T11:12:45.486Z,4977
2016-05-05T11:16:01.266Z,4928
2016-05-05T11:19:14.905Z,4840
2016-05-05T11:22:29.730Z,4759
2016-05-05T11:25:44.361Z,4662
2016-05-05T11:28:59.089Z,4570
2016-05-05T11:32:12.770Z,4463
2016-05-05T11:35:27.421Z,4399
2016-05-05T11:38:41.851Z,4363
2016-05-05T11:42:02.578Z,4277
2016-05-05T11:45:06.773Z,4212
2016-05-05T11:48:21.251Z,4154
2016-05-05T11:51:35.839Z,4101
2016-05-05T11:54:56.316Z,4027
2016-05-05T11:57:59.949Z,3971
2016-05-05T12:01:14.441Z,3891
2016-05-05T12:04:29.062Z,3823
2016-05-05T12:07:43.616Z,3764
2016-05-05T12:10:58.156Z,3722
2016-05-05T12:14:12.538Z,3696
2016-05-05T12:17:26.735Z,3665
2016-05-05T12:20:40.901Z,3636
2016-05-05T12:24:00.659Z,3589
2016-05-05T12:27:04.090Z,3540
2016-05-05T12:30:17.972Z,3498
2016-05-05T12:33:32.155Z,3455
2016-05-05T12:36:46.257Z,3430
2016-05-05T12:40:00.374Z,3423
2016-05-05T12:43:14.335Z,3388
2016-05-05T12:46:28.360Z,3360
2016-05-05T12:49:42.432Z,3323
2016-05-05T12:53:02.550Z,3286
2016-05-05T12:56:05.730Z,3246
2016-05-05T12:59:19.706Z,3216
2016-05-05T13:02:33.498Z,3170
2016-05-05T13:05:47.319Z,3141
2016-05-05T13:09:01.031Z,3101
2016-05-05T13:12:14.727Z,3090
2016-05-05T13:15:29.093Z,3076
2016-05-05T13:18:41.870Z,3042
2016-05-05T13:22:01.566Z,3024
2016-05-05T13:25:04.496Z,2972
2016-05-05T13:28:17.926Z,2948
2016-05-05T13:31:31.420Z,2940
2016-05-05T13:34:45.007Z,2943
2016-05-05T13:37:58.547Z,2933
2016-05-05T13:41:12.023Z,2927
2016-05-05T13:44:25.141Z,2908
2016-05-05T13:47:37.980Z,2894
2016-05-05T13:50:57.003Z,2864
2016-05-05T13:53:59.918Z,2920
2016-05-05T13:57:13.207Z,2885
2016-05-05T14:00:26.356Z,2807
2016-05-05T14:03:39.444Z,2804
2016-05-05T14:06:57.764Z,2771
2016-05-05T14:10:00.039Z,2758
2016-05-05T14:13:13.219Z,2828
2016-05-05T14:16:26.445Z,2841
2016-05-05T14:19:39.284Z,2735
2016-05-05T14:22:58.385Z,2749
2016-05-05T14:26:00.832Z,2785
2016-05-05T14:29:14.059Z,2838
2016-05-05T14:32:27.285Z,2840
2016-05-05T14:35:40.592Z,2750
2016-05-05T14:38:59.648Z,2863
2016-05-05T14:42:02.047Z,2837
2016-05-05T14:45:15.414Z,2669
2016-05-05T14:48:28.921Z,2503
2016-05-05T14:51:42.573Z,2671
2016-05-05T14:55:02.347Z,2660
2016-05-05T14:58:05.167Z,2687
2016-05-05T15:01:18.800Z,2634
2016-05-05T15:04:32.449Z,2529
2016-05-05T15:07:46.163Z,2520
2016-05-05T15:10:59.640Z,2494
2016-05-05T15:14:13.226Z,2437
2016-05-05T15:17:26.640Z,2429
2016-05-05T15:20:40.042Z,2428
2016-05-05T15:23:59.707Z,2410
2016-05-05T15:27:02.527Z,2393
2016-05-05T15:30:16.035Z,2376
2016-05-05T15:33:29.714Z,2350
2016-05-05T15:36:43.429Z,2290
2016-05-05T15:40:02.953Z,2221
2016-05-05T15:43:05.804Z,2284
2016-05-05T15:46:19.406Z,2230
2016-05-05T15:49:32.977Z,2191
2016-05-05T15:52:46.394Z,2186
2016-05-05T15:56:02.104Z,2165
2016-05-05T15:59:13.159Z,2149
2016-05-05T16:02:26.621Z,2131
2016-05-05T16:05:40.273Z,2060
2016-05-05T16:08:59.812Z,2083
2016-05-05T16:12:02.679Z,2057
2016-05-05T16:15:15.797Z,2039
2016-05-05T16:18:29.398Z,2017
2016-05-05T16:21:42.675Z,1992
2016-05-05T16:25:02.855Z,1963
2016-05-05T16:28:05.206Z,1926
2016-05-05T16:31:18.527Z,1899
2016-05-05T16:34:32.301Z,1871
2016-05-05T16:37:45.906Z,1850
2016-05-05T16:40:58.804Z,1819
2016-05-05T16:44:12.265Z,1783
2016-05-05T16:47:25.117Z,1755
2016-05-05T16:50:38.859Z,1729
2016-05-05T16:53:58.636Z,1701
2016-05-05T16:57:01.456Z,1672
2016-05-05T17:00:12.699Z,1637
2016-05-05T17:03:26.472Z,1588
2016-05-05T17:06:40.059Z,1554
2016-05-05T17:09:59.507Z,1517
2016-05-05T17:13:02.328Z,1481
2016-05-05T17:16:15.695Z,1443
2016-05-05T17:19:29.359Z,1400
2016-05-05T17:22:42.980Z,1355
2016-05-05T17:26:02.691Z,1313
2016-05-05T17:29:05.464Z,1269
2016-05-05T17:32:18.957Z,1224
2016-05-05T17:35:32.605Z,1178
2016-05-05T17:38:46.413Z,1184
2016-05-05T17:42:02.499Z,1132
2016-05-05T17:45:05.382Z,1082
2016-05-05T17:48:19.109Z,1026
2016-05-05T17:51:32.336Z,970
2016-05-05T17:54:45.831Z,913
2016-05-05T17:57:59.480Z,855
2016-05-05T18:01:13.129Z,796
2016-05-05T18:04:26.668Z,736
2016-05-05T18:07:39.879Z,676
2016-05-05T18:10:59.436Z,617
2016-05-05T18:14:03.069Z,564
2016-05-05T18:17:15.547Z,511
2016-05-05T18:20:29.180Z,456
2016-05-05T18:23:42.781Z,397
2016-05-05T18:27:02.433Z,339
2016-05-05T18:30:05.128Z,285
2016-05-05T18:33:18.652Z,232
2016-05-05T18:36:32.255Z,185
2016-05-05T18:39:46.077Z,141
2016-05-05T18:42:59.695Z,103
2016-05-05T18:46:13.359Z,74
2016-05-05T18:49:26.226Z,53
2016-05-05T18:52:39.703Z,38
2016-05-05T18:55:59.260Z,26
2016-05-05T18:59:01.956Z,16
2016-05-05T19:02:14.793Z,10
2016-05-05T19:05:28.222Z,7
2016-05-05T19:08:41.700Z,4
2016-05-05T19:12:01.273Z,3
2016-05-05T19:15:04.031Z,2
2016-05-05T19:18:17.664Z,1
2016-05-05T19:21:31.282Z,2
2016-05-05T19:24:44.695Z,1
2016-05-05T19:28:04.238Z,1
2016-05-05T19:31:06.996Z,1
2016-05-05T19:34:20.363Z,1
2016-05-05T19:37:34.075Z,1
2016-05-05T19:40:47.895Z,1
2016-05-05T19:44:00.921Z,1
2016-05-05T19:47:14.367Z,1
2016-05-05T19:50:27.843Z,1
2016-05-05T19:53:41.476Z,1
2016-05-05T19:57:00.862Z,1
2016-05-05T20:00:03.683Z,1
2016-05-05T20:03:17.020Z,1
2016-05-05T20:06:30.472Z,1
2016-05-05T20:09:44.368Z,1
2016-05-05T20:13:04.048Z,1
2016-05-05T20:16:06.878Z,1
2016-05-05T20:19:20.575Z,1
2016-05-05T20:22:33.369Z,1
2016-05-05T20:25:47.914Z,1
2016-05-05T20:29:00.037Z,1
2016-05-05T20:32:13.404Z,1
2016-05-05T20:35:26.772Z,1
2016-05-05T20:38:40.280Z,1
2016-05-05T20:41:59.478Z,1
2016-05-05T20:45:02.018Z,1
2016-05-05T20:48:15.385Z,1
2016-05-05T20:51:28.487Z,1
2016-05-05T20:54:40.229Z,1
2016-05-05T20:57:59.365Z,1
2016-05-05T21:01:01.842Z,1
2016-05-05T21:04:15.022Z,1
2016-05-05T21:07:28.420Z,1
2016-05-05T21:10:42.225Z,1
2016-05-05T21:14:01.252Z,1
2016-05-05T21:17:03.744Z,1
2016-05-05T21:20:16.924Z,1
2016-05-05T21:23:30.104Z,1
2016-05-05T21:26:41.924Z,1
2016-05-05T21:30:01.232Z,1
2016-05-05T21:33:03.647Z,1
2016-05-05T21:36:16.889Z,1
2016-05-05T21:39:30.256Z,1
2016-05-05T21:42:41.906Z,1
2016-05-05T21:46:01.072Z,1
2016-05-05T21:49:03.674Z,1
2016-05-05T21:52:17.010Z,1
2016-05-05T21:55:30.284Z,1
2016-05-05T21:58:43.558Z,1
2016-05-05T22:02:02.848Z,1
2016-05-05T22:05:05.451Z,1
2016-05-05T22:08:18.523Z,1
2016-05-05T22:11:33.562Z,1
2016-05-05T22:14:44.350Z,1
2016-05-05T22:18:03.655Z,1
2016-05-05T22:21:06.148Z,1
2016-05-05T22:24:19.391Z,1
2016-05-05T22:27:32.305Z,1
2016-05-05T22:30:45.502Z,1
2016-05-05T22:34:04.822Z,1
2016-05-05T22:37:07.236Z,1
2016-05-05T22:40:20.278Z,1
2016-05-05T22:43:33.583Z,1
2016-05-05T22:46:46.731Z,1
2016-05-05T22:50:00.068Z,1
2016-05-05T22:53:12.782Z,1
2016-05-05T22:56:25.822Z,1
2016-05-05T22:59:38.970Z,1
2016-05-05T23:02:57.994Z,1
2016-05-05T23:06:00.298Z,1
2016-05-05T23:09:13.513Z,1
2016-05-05T23:12:24.740Z,1
2016-05-05T23:15:37.888Z,1
2016-05-05T23:18:57.193Z,1
2016-05-05T23:21:59.404Z,1
2016-05-05T23:25:12.256Z,1
2016-05-05T23:28:25.361Z,1
2016-05-05T23:31:38.244Z,1
2016-05-05T23:34:57.486Z,1
2016-05-05T23:37:59.869Z,1
2016-05-05T23:41:13.830Z,1
2016-05-05T23:44:27.249Z,1
2016-05-05T23:47:39.474Z,1
2016-05-05T23:50:57.936Z,1
2016-05-05T23:54:00.334Z,1
2016-05-05T23:57:13.373Z,1
